createdAt,value
2019-03-23T00:02:15.272Z,7.70
2019-03-23T00:07:21.832Z,7.69
2019-03-23T00:12:30.258Z,7.74
2019-03-23T00:17:38.489Z,7.74
2019-03-23T00:22:46.619Z,7.77
2019-03-23T00:27:56.254Z,7.80
2019-03-23T00:33:04.707Z,7.80
2019-03-23T00:38:13.712Z,7.80
2019-03-23T00:43:21.569Z,7.80
2019-03-23T00:48:30.051Z,7.75
2019-03-23T00:55:35.108Z,7.73
2019-03-23T01:00:43.106Z,7.80
2019-03-23T01:05:51.327Z,7.78
2019-03-23T01:10:59.227Z,7.76
2019-03-23T01:16:08.059Z,7.70
2019-03-23T01:21:15.913Z,7.68
2019-03-23T01:26:24.052Z,7.67
2019-03-23T01:31:31.910Z,7.64
2019-03-23T01:36:39.646Z,7.61
2019-03-23T01:41:48.015Z,7.47
2019-03-23T01:46:55.744Z,7.47
2019-03-23T01:52:03.653Z,7.41
2019-03-23T01:57:12.938Z,7.30
2019-03-23T02:02:20.755Z,7.30
2019-03-23T02:07:28.682Z,7.33
2019-03-23T02:12:36.625Z,7.49
2019-03-23T02:17:44.418Z,7.56
2019-03-23T02:24:21.683Z,7.52
2019-03-23T02:29:29.613Z,7.70
2019-03-23T02:34:37.582Z,7.81
2019-03-23T02:39:46.589Z,7.87
2019-03-23T02:44:54.554Z,7.91
2019-03-23T02:50:02.573Z,7.91
2019-03-23T02:58:31.384Z,7.94
2019-03-23T03:03:39.259Z,8.09
2019-03-23T03:08:48.262Z,8.12
2019-03-23T03:13:56.584Z,8.14
2019-03-23T03:19:05.586Z,8.19
2019-03-23T03:24:13.590Z,8.22
2019-03-23T03:29:20.266Z,8.22
2019-03-23T03:34:29.848Z,8.25
2019-03-23T03:39:38.268Z,8.27
2019-03-23T03:44:44.849Z,8.27
2019-03-23T03:49:52.929Z,8.27
2019-03-23T03:58:21.072Z,8.15
2019-03-23T04:08:39.605Z,8.37
2019-03-23T04:13:49.626Z,8.23
2019-03-23T04:18:58.580Z,8.25
2019-03-23T04:24:08.057Z,8.25
2019-03-23T04:29:15.906Z,8.25
2019-03-23T04:34:24.246Z,8.25
2019-03-23T04:39:33.365Z,8.21
2019-03-23T04:44:41.381Z,8.18
2019-03-23T04:49:49.116Z,8.14
2019-03-23T04:54:58.265Z,8.10
2019-03-23T05:00:08.707Z,8.08
2019-03-23T05:05:16.607Z,8.06
2019-03-23T05:10:24.584Z,8.04
2019-03-23T05:15:34.051Z,8.05
2019-03-23T05:20:44.088Z,8.05
2019-03-23T05:25:52.336Z,8.04
2019-03-23T05:31:00.250Z,8.02
2019-03-23T05:36:09.644Z,8.02
2019-03-23T05:41:16.475Z,8.01
2019-03-23T05:46:24.094Z,8.01
2019-03-23T05:51:32.032Z,8.01
2019-03-23T05:56:40.585Z,8.03
2019-03-23T06:01:48.433Z,8.18
2019-03-23T06:06:57.220Z,8.18
2019-03-23T06:12:07.235Z,8.22
2019-03-23T06:17:13.839Z,8.26
2019-03-23T06:24:05.434Z,8.27
2019-03-23T06:29:14.255Z,8.45
2019-03-23T06:34:22.471Z,8.57
2019-03-23T06:39:30.639Z,8.72
2019-03-23T06:44:38.641Z,8.74
2019-03-23T06:49:47.583Z,8.73
2019-03-23T06:54:56.587Z,8.81
2019-03-23T07:00:04.835Z,8.81
2019-03-23T07:05:13.100Z,9.00
2019-03-23T07:13:40.848Z,8.93
2019-03-23T07:18:49.462Z,9.19
2019-03-23T07:23:55.848Z,9.25
2019-03-23T07:29:05.220Z,9.30
2019-03-23T07:34:13.031Z,9.42
2019-03-23T07:39:27.276Z,9.55
2019-03-23T07:44:30.687Z,9.86
2019-03-23T07:49:39.048Z,9.86
2019-03-23T08:01:34.086Z,10.21
2019-03-23T08:06:42.010Z,10.79
2019-03-23T08:11:50.041Z,10.79
2019-03-23T08:16:56.950Z,11.08
2019-03-23T08:22:05.750Z,11.38
2019-03-23T08:27:14.038Z,11.69
2019-03-23T08:32:23.447Z,11.94
2019-03-23T08:37:31.569Z,12.38
2019-03-23T08:42:39.433Z,12.61
2019-03-23T08:47:47.464Z,12.88
2019-03-23T08:52:55.432Z,12.88
2019-03-23T08:58:03.257Z,13.18
2019-03-23T09:03:10.488Z,13.47
2019-03-23T09:08:21.527Z,13.79
2019-03-23T09:13:40.212Z,14.38
2019-03-23T09:18:40.315Z,14.38
2019-03-23T09:23:48.472Z,16.16
2019-03-23T09:28:56.399Z,16.16
2019-03-23T09:34:04.253Z,16.94
2019-03-23T09:39:13.246Z,17.56
2019-03-23T09:44:21.580Z,18.06
2019-03-23T09:49:31.567Z,18.77
2019-03-23T09:54:40.216Z,19.13
2019-03-23T09:59:48.058Z,19.13
2019-03-23T10:04:57.049Z,19.36
2019-03-23T10:10:05.588Z,19.51
2019-03-23T10:15:15.466Z,19.95
2019-03-23T10:20:23.240Z,19.95
2019-03-23T10:25:30.260Z,20.36
2019-03-23T10:30:39.048Z,20.58
2019-03-23T10:35:47.641Z,20.68
2019-03-23T10:40:56.253Z,20.96
2019-03-23T10:46:03.810Z,20.96
2019-03-23T10:51:12.049Z,21.06
2019-03-23T10:56:20.240Z,20.95
2019-03-23T11:01:26.834Z,20.93
2019-03-23T11:06:34.763Z,21.04
2019-03-23T11:11:42.635Z,21.17
2019-03-23T11:16:51.331Z,21.06
2019-03-23T11:21:58.228Z,21.06
2019-03-23T11:27:06.105Z,20.99
2019-03-23T11:36:19.106Z,21.24
2019-03-23T11:41:27.003Z,21.36
2019-03-23T11:46:38.038Z,21.41
2019-03-23T11:51:46.581Z,21.84
2019-03-23T11:56:54.612Z,22.12
2019-03-23T12:02:02.045Z,22.13
2019-03-23T12:07:11.076Z,22.13
2019-03-23T12:12:18.805Z,22.23
2019-03-23T12:17:27.021Z,21.99
2019-03-23T12:22:35.078Z,21.92
2019-03-23T12:27:42.255Z,21.87
2019-03-23T12:32:50.624Z,22.03
2019-03-23T12:37:58.679Z,22.68
2019-03-23T12:43:06.908Z,22.26
2019-03-23T12:48:15.102Z,22.26
2019-03-23T12:53:23.370Z,21.63
2019-03-23T12:58:31.682Z,21.10
2019-03-23T13:03:41.278Z,20.96
2019-03-23T13:08:49.576Z,20.29
2019-03-23T13:13:59.696Z,19.94
2019-03-23T13:19:07.873Z,19.98
2019-03-23T13:24:15.702Z,19.98
2019-03-23T13:29:24.579Z,20.00
2019-03-23T13:34:33.411Z,19.36
2019-03-23T13:39:41.439Z,19.36
2019-03-23T13:44:49.448Z,19.42
2019-03-23T13:49:57.575Z,19.59
2019-03-23T13:55:08.764Z,19.40
2019-03-23T14:00:17.236Z,19.40
2019-03-23T14:05:26.028Z,19.25
2019-03-23T14:10:35.569Z,19.22
2019-03-23T14:15:43.871Z,19.49
2019-03-23T14:20:54.243Z,19.49
2019-03-23T14:26:02.478Z,19.10
2019-03-23T14:31:10.600Z,18.86
2019-03-23T14:36:19.042Z,18.60
2019-03-23T14:41:26.496Z,18.60
2019-03-23T14:46:34.330Z,18.01
2019-03-23T14:51:41.600Z,17.56
2019-03-23T14:56:50.064Z,17.29
2019-03-23T15:01:57.916Z,17.38
2019-03-23T15:07:06.043Z,17.38
2019-03-23T15:12:15.228Z,17.24
2019-03-23T15:17:23.105Z,17.28
2019-03-23T15:22:30.901Z,17.52
2019-03-23T15:27:38.700Z,17.23
2019-03-23T15:32:46.901Z,16.50
2019-03-23T15:37:54.715Z,16.50
2019-03-23T15:43:01.589Z,16.30
2019-03-23T15:48:09.894Z,16.30
2019-03-23T15:53:18.446Z,16.32
2019-03-23T15:58:26.682Z,16.22
2019-03-23T16:03:35.109Z,15.74
2019-03-23T16:08:43.623Z,15.33
2019-03-23T16:13:51.608Z,14.88
2019-03-23T16:18:59.568Z,14.81
2019-03-23T16:24:07.409Z,14.81
2019-03-23T16:29:15.045Z,14.70
2019-03-23T16:34:24.247Z,14.68
2019-03-23T16:39:33.068Z,14.66
2019-03-23T16:44:41.277Z,14.63
2019-03-23T16:49:49.260Z,14.49
2019-03-23T16:54:57.868Z,14.35
2019-03-23T17:00:07.562Z,14.23
2019-03-23T17:07:48.240Z,13.93
2019-03-23T17:12:56.246Z,13.91
2019-03-23T17:18:03.613Z,13.84
2019-03-23T17:23:11.647Z,13.77
2019-03-23T17:28:20.599Z,13.80
2019-03-23T17:33:29.504Z,13.80
2019-03-23T17:38:38.397Z,13.84
2019-03-23T17:43:46.116Z,13.84
2019-03-23T17:48:54.699Z,13.86
2019-03-23T17:54:02.313Z,13.88
2019-03-23T17:59:10.409Z,13.88
2019-03-23T18:04:18.605Z,13.84
2019-03-23T18:09:27.031Z,13.88
2019-03-23T18:14:34.842Z,13.85
2019-03-23T18:19:43.572Z,13.73
2019-03-23T18:24:51.684Z,13.76
2019-03-23T18:30:00.353Z,13.76
2019-03-23T18:35:09.432Z,13.73
2019-03-23T18:40:17.928Z,13.73
2019-03-23T18:45:26.624Z,13.73
2019-03-23T18:50:34.664Z,13.69
2019-03-23T18:55:44.380Z,13.69
2019-03-23T19:00:52.374Z,13.69
2019-03-23T19:06:00.255Z,13.72
2019-03-23T19:11:08.110Z,13.71
2019-03-23T19:16:16.598Z,13.68
2019-03-23T19:21:24.579Z,13.55
2019-03-23T19:26:33.998Z,13.55
2019-03-23T19:31:42.039Z,13.53
2019-03-23T19:36:50.553Z,13.43
2019-03-23T19:41:58.592Z,13.37
2019-03-23T19:47:06.578Z,13.38
2019-03-23T19:52:14.403Z,13.40
2019-03-23T19:57:21.819Z,13.40
2019-03-23T20:02:30.171Z,13.38
2019-03-23T20:07:38.416Z,13.34
2019-03-23T20:12:47.330Z,13.27
2019-03-23T20:17:55.019Z,13.22
2019-03-23T20:23:03.104Z,13.20
2019-03-23T20:28:10.902Z,13.09
2019-03-23T20:33:20.746Z,13.05
2019-03-23T20:38:28.935Z,12.97
2019-03-23T20:43:35.489Z,12.89
2019-03-23T20:48:46.263Z,12.82
2019-03-23T20:53:54.627Z,12.75
2019-03-23T20:59:03.615Z,12.70
2019-03-23T21:04:11.862Z,12.66
2019-03-23T21:09:20.924Z,12.66
2019-03-23T21:14:29.086Z,12.70
2019-03-23T21:19:37.676Z,12.56
2019-03-23T21:24:46.455Z,12.25
2019-03-23T21:29:55.240Z,12.25
2019-03-23T21:35:03.243Z,12.17
2019-03-23T21:40:12.473Z,12.06
2019-03-23T21:45:21.061Z,11.92
2019-03-23T21:50:30.257Z,11.77
2019-03-23T21:55:38.489Z,11.67
2019-03-23T22:00:46.545Z,11.57
2019-03-23T22:05:55.626Z,11.47
2019-03-23T22:11:03.909Z,11.26
2019-03-23T22:16:11.706Z,11.26
2019-03-23T22:21:20.583Z,11.25
2019-03-23T22:26:29.255Z,11.16
2019-03-23T22:32:04.872Z,11.14
2019-03-23T22:37:12.681Z,11.14
2019-03-23T22:42:21.274Z,11.13
2019-03-23T22:47:29.416Z,11.13
2019-03-23T22:52:36.002Z,11.06
2019-03-23T22:57:45.422Z,11.01
2019-03-23T23:02:53.134Z,10.91
2019-03-23T23:08:02.474Z,10.85
2019-03-23T23:13:10.280Z,10.86
2019-03-23T23:18:18.392Z,10.94
2019-03-23T23:23:26.434Z,10.94
2019-03-23T23:28:35.127Z,10.99
2019-03-23T23:33:43.280Z,10.99
2019-03-23T23:38:52.566Z,10.92
2019-03-23T23:44:01.255Z,10.81
2019-03-23T23:49:10.075Z,10.67
2019-03-23T23:54:17.280Z,10.62
2019-03-23T23:59:25.075Z,10.63
